Terminal Aerodrome Forecast
Issued by NWS Cleveland, OH

Home | Current Version | Previous Version | Text Only | Print | Product List | Glossary Off
Versions: 1 2 3 4 5 6 7 8 9 10 11 12 13 14 15

000
FTUS41 KCLE 230500
TAFERI
TAF
KERI 230528Z 2306/2406 26011KT P6SM VCSH SCT025 OVC045
      TEMPO 2306/2310 3SM -SHSNRA BKN025
     FM231000 27012KT P6SM VCSH BKN025 OVC040
     FM231500 27015G25KT P6SM VCSH BKN035 OVC050
     FM240000 27014KT P6SM VCSH OVC040=

USA.gov is the U.S. government's official web portal to all federal, state and local government web resources and services.